Time;durP1;ratioP1;P1;durP2;ratioP2;P2;SDS_P1;SDS_P2;PMS_P1;PMS_P2;Temp;Humidity;BMP_temperature;BMP_pressure;BME280_temperature;BME280_humidity;BME280_pressure;Samples;Min_cycle;Max_cycle;Signal;HPM_P1;HPM_P2
2022/08/07 00:00:14;;;;;;;1.33;0.63;;;;;;;18.18;39.56;100103.50;342544;28;1605;-68
2022/08/07 00:00:29;;;;;;;2.10;0.60;;;;;;;18.19;39.08;100110.47;342394;28;1749;-68
2022/08/07 00:00:41;;;;;;;1.85;0.60;;;;;;;18.18;38.95;100108.75;342291;28;1075;-68
2022/08/07 00:00:54;;;;;;;1.40;0.60;;;;;;;18.18;39.02;100098.22;342533;28;1815;-68
2022/08/07 00:01:10;;;;;;;2.83;0.60;;;;;;;18.16;38.51;100108.84;342428;28;1083;-68
2022/08/07 00:01:42;;;;;;;1.50;0.80;;;;;;;18.17;39.79;100101.81;342073;28;1536;-68
2022/08/07 00:02:14;;;;;;;1.33;0.60;;;;;;;18.16;39.94;100113.25;341418;28;1382;-68
2022/08/07 00:02:46;;;;;;;1.40;0.60;;;;;;;18.10;40.52;100110.97;342190;28;1389;-68
2022/08/07 00:02:58;;;;;;;0.85;0.50;;;;;;;18.09;39.93;100104.88;341435;28;1723;-68
2022/08/07 00:03:13;;;;;;;2.80;0.60;;;;;;;18.08;39.69;100103.16;340884;28;1877;-70
2022/08/07 00:03:27;;;;;;;3.03;0.65;;;;;;;18.07;39.31;100106.75;343078;28;1241;-68
2022/08/07 00:03:47;;;;;;;1.50;0.70;;;;;;;18.11;39.12;100107.41;342805;28;1710;-67
2022/08/07 00:03:59;;;;;;;2.25;0.60;;;;;;;18.08;39.27;100104.97;342831;28;1722;-67
2022/08/07 00:04:14;;;;;;;2.75;0.70;;;;;;;18.07;39.48;100106.75;342462;28;1091;-68
2022/08/07 00:04:26;;;;;;;2.10;0.60;;;;;;;18.10;39.34;100100.47;342314;28;1051;-67
2022/08/07 00:04:40;;;;;;;0.90;0.50;;;;;;;18.13;39.23;100100.28;342304;28;1007;-68
2022/08/07 00:04:56;;;;;;;2.30;0.60;;;;;;;18.14;39.71;100108.06;342108;28;1567;-67
2022/08/07 00:05:08;;;;;;;2.30;0.60;;;;;;;18.15;39.88;100108.94;342359;28;1368;-67
2022/08/07 00:05:21;;;;;;;1.40;0.50;;;;;;;18.14;40.43;100113.34;342640;28;1736;-67
2022/08/07 00:05:36;;;;;;;1.40;0.50;;;;;;;18.13;40.59;100100.28;342632;28;1254;-67
2022/08/07 00:05:49;;;;;;;2.03;0.50;;;;;;;18.12;40.33;100109.09;342289;28;1201;-67
2022/08/07 00:06:03;;;;;;;2.20;0.50;;;;;;;18.12;40.04;100109.94;342898;28;1727;-67
2022/08/07 00:06:16;;;;;;;1.20;0.50;;;;;;;18.14;39.83;100107.25;342784;28;1134;-68
2022/08/07 00:06:32;;;;;;;1.20;0.60;;;;;;;18.15;39.58;100106.31;343370;28;1836;-66
2022/08/07 00:06:44;;;;;;;1.50;0.60;;;;;;;18.15;39.48;100104.53;341579;28;1695;-68
2022/08/07 00:07:03;;;;;;;1.10;0.52;;;;;;;18.17;39.79;100109.72;341976;28;1418;-66
2022/08/07 00:07:20;;;;;;;2.00;0.70;;;;;;;18.17;39.63;100107.09;341980;28;1819;-67
2022/08/07 00:07:32;;;;;;;2.08;0.70;;;;;;;18.14;39.83;100108.06;341356;28;1834;-69
2022/08/07 00:07:53;;;;;;;0.90;0.50;;;;;;;18.16;39.45;100102.75;341822;28;1108;-68
2022/08/07 00:08:12;;;;;;;1.15;0.57;;;;;;;18.14;39.18;100107.25;342336;28;1431;-68
2022/08/07 00:08:25;;;;;;;0.85;0.57;;;;;;;18.07;39.09;100112.00;342917;28;1600;-68
2022/08/07 00:08:39;;;;;;;0.80;0.60;;;;;;;18.05;39.52;100107.75;343059;28;1666;-68
2022/08/07 00:08:55;;;;;;;1.05;0.52;;;;;;;18.06;39.50;100104.19;343434;28;1276;-67
2022/08/07 00:09:07;;;;;;;0.68;0.45;;;;;;;18.07;39.22;100105.88;342463;28;1335;-69
2022/08/07 00:09:31;;;;;;;0.85;0.50;;;;;;;18.10;38.92;100106.56;342024;28;1091;-67
2022/08/07 00:09:46;;;;;;;1.20;0.60;;;;;;;18.11;39.20;100113.53;342399;28;1139;-68
2022/08/07 00:10:18;;;;;;;1.85;0.50;;;;;;;18.10;39.59;100110.97;343323;28;1313;-68
2022/08/07 00:10:38;;;;;;;0.82;0.50;;;;;;;18.11;39.35;100107.41;343573;28;1171;-69
2022/08/07 00:11:08;;;;;;;0.52;0.52;;;;;;;18.12;39.24;100107.31;342522;28;1441;-68
2022/08/07 00:11:21;;;;;;;0.63;0.50;;;;;;;18.14;39.43;100113.34;344475;28;1111;-67
2022/08/07 00:11:44;;;;;;;1.25;0.60;;;;;;;18.15;38.98;100111.59;343432;28;1272;-68
2022/08/07 00:12:07;;;;;;;0.80;0.50;;;;;;;18.17;39.04;100107.09;344763;28;1442;-67
2022/08/07 00:12:21;;;;;;;0.60;0.50;;;;;;;18.19;39.52;100115.72;344083;28;1117;-67
2022/08/07 00:12:36;;;;;;;0.50;0.50;;;;;;;18.15;40.18;100114.22;344070;28;1900;-67
2022/08/07 00:13:08;;;;;;;1.73;0.50;;;;;;;18.15;39.67;100111.59;342213;28;1458;-66
2022/08/07 00:13:38;;;;;;;1.40;0.50;;;;;;;18.13;39.38;100116.09;342250;28;1290;-67
2022/08/07 00:13:56;;;;;;;1.15;0.60;;;;;;;18.14;39.36;100117.75;342672;28;1302;-66
2022/08/07 00:14:10;;;;;;;1.00;0.52;;;;;;;18.13;40.54;100116.91;343914;28;1062;-67
2022/08/07 00:14:25;;;;;;;1.73;0.60;;;;;;;18.13;40.40;100116.09;343490;28;1255;-67
2022/08/07 00:14:41;;;;;;;1.70;0.60;;;;;;;18.15;39.77;100114.22;343547;28;1019;-67
2022/08/07 00:14:55;;;;;;;0.70;0.50;;;;;;;18.12;39.14;100114.38;343330;28;1035;-68
2022/08/07 00:15:07;;;;;;;1.50;0.50;;;;;;;18.13;39.83;100114.28;342352;28;1052;-68
2022/08/07 00:15:19;;;;;;;1.50;0.50;;;;;;;18.13;40.06;100116.09;341248;29;1179;-67
2022/08/07 00:15:36;;;;;;;0.70;0.60;;;;;;;18.13;39.71;100116.91;341826;28;1596;-67
2022/08/07 00:16:04;;;;;;;0.68;0.50;;;;;;;18.15;39.63;100120.31;341713;28;1301;-67
2022/08/07 00:16:18;;;;;;;1.90;0.70;;;;;;;18.18;39.04;100119.28;343730;28;1042;-66
2022/08/07 00:16:39;;;;;;;1.20;0.80;;;;;;;18.21;38.89;100124.38;344114;28;1169;-68
2022/08/07 00:16:52;;;;;;;1.60;0.60;;;;;;;18.22;39.11;100112.91;344892;28;1217;-66
2022/08/07 00:17:04;;;;;;;1.67;0.50;;;;;;;18.25;39.32;100115.38;343582;28;1354;-67
2022/08/07 00:17:17;;;;;;;1.17;0.55;;;;;;;18.23;39.54;100117.25;343376;28;1099;-66
2022/08/07 00:17:31;;;;;;;0.60;0.50;;;;;;;18.21;40.79;100111.22;343355;28;1093;-67
2022/08/07 00:17:46;;;;;;;0.50;0.50;;;;;;;18.17;40.29;100117.59;342256;28;1261;-67
2022/08/07 00:17:59;;;;;;;0.73;0.50;;;;;;;18.17;39.50;100107.91;342921;28;1876;-67
2022/08/07 00:18:15;;;;;;;2.15;0.60;;;;;;;18.19;40.23;100115.72;342393;28;1041;-66
2022/08/07 00:18:34;;;;;;;1.77;0.60;;;;;;;18.17;39.97;100115.81;342536;28;1071;-67
2022/08/07 00:18:49;;;;;;;0.80;0.57;;;;;;;18.17;39.57;100113.19;342992;28;729;-66
2022/08/07 00:19:01;;;;;;;0.85;0.50;;;;;;;18.18;39.65;100114.03;343496;28;1539;-67
2022/08/07 00:19:16;;;;;;;2.05;0.60;;;;;;;18.19;39.59;100118.38;342514;28;1172;-66
2022/08/07 00:19:33;;;;;;;2.13;0.60;;;;;;;18.17;39.74;100115.81;342335;28;1251;-67
2022/08/07 00:20:06;;;;;;;2.20;0.45;;;;;;;18.15;39.93;100119.47;343128;28;1602;-67
2022/08/07 00:20:19;;;;;;;2.80;0.60;;;;;;;18.17;39.81;100117.59;343543;28;845;-68
2022/08/07 00:20:45;;;;;;;2.90;0.60;;;;;;;18.17;39.27;100117.59;343987;28;1034;-67
2022/08/07 00:21:03;;;;;;;2.40;0.60;;;;;;;18.19;39.16;100118.38;342801;28;1615;-67
2022/08/07 00:21:19;;;;;;;2.13;0.60;;;;;;;18.21;39.13;100118.25;342433;28;1018;-67
2022/08/07 00:21:51;;;;;;;3.60;0.60;;;;;;;18.18;39.54;100114.03;343195;28;1425;-67
2022/08/07 00:22:13;;;;;;;1.30;0.50;;;;;;;18.17;39.57;100118.44;342816;28;1071;-67
2022/08/07 00:22:35;;;;;;;1.50;0.70;;;;;;;18.16;38.99;100115.91;342652;28;1479;-66
2022/08/07 00:22:49;;;;;;;2.20;0.60;;;;;;;18.14;39.85;100115.97;342633;28;1974;-68
2022/08/07 00:23:05;;;;;;;2.13;0.60;;;;;;;18.15;39.57;100119.47;343296;28;1650;-67
2022/08/07 00:23:19;;;;;;;1.05;0.60;;;;;;;18.16;39.63;100116.72;342576;28;1706;-66
2022/08/07 00:23:34;;;;;;;0.93;0.52;;;;;;;18.16;39.63;100121.16;342554;28;1166;-67
2022/08/07 00:23:46;;;;;;;1.02;0.52;;;;;;;18.16;40.14;100122.00;342402;28;1082;-67
2022/08/07 00:23:59;;;;;;;1.17;0.60;;;;;;;18.16;39.54;100121.16;342635;28;1714;-67
2022/08/07 00:24:11;;;;;;;0.80;0.57;;;;;;;18.17;39.44;100118.44;342568;28;1758;-67
2022/08/07 00:24:22;;;;;;;0.90;0.52;;;;;;;18.19;39.24;100122.75;342206;28;1209;-67
2022/08/07 00:24:35;;;;;;;1.00;0.60;;;;;;;18.18;39.41;100119.28;342635;28;2057;-67
2022/08/07 00:24:47;;;;;;;1.02;0.55;;;;;;;18.18;39.41;100119.28;343545;28;1818;-68
2022/08/07 00:24:59;;;;;;;0.70;0.50;;;;;;;18.15;39.71;100124.72;342204;28;1947;-67
2022/08/07 00:25:13;;;;;;;0.50;0.43;;;;;;;18.15;39.45;100119.47;342459;28;1101;-67
2022/08/07 00:25:28;;;;;;;0.70;0.50;;;;;;;18.14;39.47;100117.75;342423;28;1913;-68
2022/08/07 00:25:52;;;;;;;1.20;0.55;;;;;;;18.12;40.12;100119.63;341758;28;1689;-67
2022/08/07 00:26:12;;;;;;;0.73;0.40;;;;;;;18.13;40.05;100121.34;342555;28;1931;-66
2022/08/07 00:26:44;;;;;;;1.58;0.50;;;;;;;18.16;39.65;100116.72;342627;28;1612;-67
2022/08/07 00:27:16;;;;;;;1.58;0.60;;;;;;;18.16;40.15;100118.53;342457;28;1680;-67
2022/08/07 00:27:28;;;;;;;1.20;0.50;;;;;;;18.16;39.84;100110.63;342341;28;1264;-66
2022/08/07 00:28:00;;;;;;;1.88;0.50;;;;;;;18.14;40.46;100120.41;342365;28;2635;-66
2022/08/07 00:28:13;;;;;;;2.00;0.50;;;;;;;18.11;39.81;100113.53;342813;28;1286;-66
2022/08/07 00:28:30;;;;;;;2.75;0.50;;;;;;;18.12;39.83;100114.38;343713;28;1054;-67
2022/08/07 00:28:45;;;;;;;1.90;0.50;;;;;;;18.12;39.89;100114.38;343516;28;1099;-67
2022/08/07 00:29:07;;;;;;;0.70;0.50;;;;;;;18.13;40.12;100118.72;343431;28;1480;-67
2022/08/07 00:29:24;;;;;;;0.73;0.50;;;;;;;18.11;40.05;100118.78;343873;28;1052;-67
2022/08/07 00:29:42;;;;;;;1.45;0.40;;;;;;;18.14;40.17;100117.75;343850;28;1060;-67
2022/08/07 00:29:55;;;;;;;1.67;0.50;;;;;;;18.13;39.74;100116.91;343089;28;1260;-67
2022/08/07 00:30:08;;;;;;;1.70;0.50;;;;;;;18.14;39.97;100113.34;342305;28;1158;-67
2022/08/07 00:30:39;;;;;;;1.38;0.40;;;;;;;18.11;40.14;100112.66;341800;28;1572;-67
2022/08/07 00:30:51;;;;;;;1.02;0.40;;;;;;;18.11;39.74;100112.66;342296;28;1369;-67
2022/08/07 00:31:06;;;;;;;1.20;0.43;;;;;;;18.11;39.92;100110.03;342064;28;1957;-67
2022/08/07 00:31:27;;;;;;;1.33;0.60;;;;;;;18.11;39.60;100108.28;340678;29;1207;-67
2022/08/07 00:31:53;;;;;;;1.00;0.50;;;;;;;18.08;39.86;100112.84;341590;28;1635;-67
2022/08/07 00:32:05;;;;;;;1.02;0.50;;;;;;;18.08;39.72;100111.06;342345;28;1853;-67
2022/08/07 00:32:17;;;;;;;1.00;0.50;;;;;;;18.12;39.77;100115.22;342449;28;1968;-67
2022/08/07 00:32:39;;;;;;;1.13;0.60;;;;;;;18.12;39.40;100109.94;342080;28;1043;-67
2022/08/07 00:32:52;;;;;;;1.70;0.60;;;;;;;18.13;39.49;100109.03;341174;28;1482;-67
2022/08/07 00:33:04;;;;;;;1.63;0.50;;;;;;;18.16;39.77;100113.25;341955;28;1344;-67
2022/08/07 00:33:18;;;;;;;0.80;0.43;;;;;;;18.16;40.02;100108.00;342446;28;883;-67
2022/08/07 00:33:30;;;;;;;1.08;0.43;;;;;;;18.16;39.67;100110.63;343399;28;1084;-67
2022/08/07 00:33:44;;;;;;;1.00;0.40;;;;;;;18.15;39.30;100115.06;343602;28;1587;-67
2022/08/07 00:33:58;;;;;;;1.23;0.63;;;;;;;18.12;40.24;100111.75;342331;28;1662;-67
2022/08/07 00:34:10;;;;;;;2.38;1.05;;;;;;;18.12;39.82;100102.06;343195;28;1665;-67
2022/08/07 00:34:22;;;;;;;2.47;1.02;;;;;;;18.10;39.77;100111.81;343561;28;1249;-67
2022/08/07 00:34:36;;;;;;;1.02;0.55;;;;;;;18.13;39.59;100116.09;343528;28;1034;-67
2022/08/07 00:34:48;;;;;;;0.85;0.60;;;;;;;18.09;40.41;100109.25;343556;28;1023;-67
2022/08/07 00:35:01;;;;;;;1.08;0.52;;;;;;;18.09;40.57;100109.25;342564;28;1949;-67
2022/08/07 00:35:14;;;;;;;0.98;0.50;;;;;;;18.09;39.75;100114.53;344274;28;1386;-67
2022/08/07 00:35:28;;;;;;;0.50;0.50;;;;;;;18.08;39.80;100107.59;343879;28;1450;-67
2022/08/07 00:35:41;;;;;;;0.47;0.47;;;;;;;18.08;39.35;100112.84;343314;28;1063;-67
2022/08/07 00:36:00;;;;;;;1.50;0.57;;;;;;;18.08;40.16;100112.84;344031;28;1323;-67
2022/08/07 00:36:12;;;;;;;1.90;0.60;;;;;;;18.10;39.79;100113.59;344373;28;1059;-66
2022/08/07 00:36:24;;;;;;;1.98;0.50;;;;;;;18.07;39.23;100108.50;343358;28;1801;-67
2022/08/07 00:36:39;;;;;;;0.68;0.43;;;;;;;18.05;39.68;100107.75;343324;28;1286;-67
2022/08/07 00:36:54;;;;;;;0.70;0.47;;;;;;;18.05;39.64;100108.63;343451;28;1806;-67
2022/08/07 00:37:07;;;;;;;1.92;0.50;;;;;;;18.05;39.51;100115.63;343893;28;1323;-67
2022/08/07 00:37:19;;;;;;;2.60;0.63;;;;;;;18.07;39.87;100112.00;343746;28;1059;-67
2022/08/07 00:37:33;;;;;;;1.30;0.60;;;;;;;18.07;40.43;100121.66;343762;28;1557;-67
2022/08/07 00:37:59;;;;;;;0.80;0.50;;;;;;;18.10;40.18;100118.88;342950;28;1406;-67
2022/08/07 00:38:11;;;;;;;1.10;0.50;;;;;;;18.13;40.08;100118.72;342467;28;1111;-67
2022/08/07 00:38:24;;;;;;;1.38;0.50;;;;;;;18.16;39.77;100113.25;342300;28;1110;-67
2022/08/07 00:38:43;;;;;;;0.80;0.50;;;;;;;18.16;39.87;100110.63;342516;28;1777;-67
2022/08/07 00:38:55;;;;;;;1.52;0.60;;;;;;;18.18;40.80;100116.66;343353;28;1627;-67
2022/08/07 00:39:08;;;;;;;1.48;0.50;;;;;;;18.15;40.16;100111.59;342426;28;981;-67
2022/08/07 00:39:27;;;;;;;1.63;0.50;;;;;;;18.20;39.92;100117.41;343613;28;1371;-67
2022/08/07 00:39:40;;;;;;;2.72;0.50;;;;;;;18.18;40.81;100114.03;343669;28;1118;-67
2022/08/07 00:39:56;;;;;;;2.07;0.50;;;;;;;18.16;40.11;100111.47;343019;28;1797;-67
2022/08/07 00:40:08;;;;;;;1.10;0.50;;;;;;;18.15;40.12;100120.31;343054;28;1575;-67
2022/08/07 00:40:26;;;;;;;0.70;0.50;;;;;;;18.16;39.87;100111.47;342363;28;1320;-67
2022/08/07 00:40:51;;;;;;;1.65;0.50;;;;;;;18.18;39.98;100119.28;342309;28;1470;-67
2022/08/07 00:41:04;;;;;;;2.10;0.50;;;;;;;18.18;39.80;100119.28;343056;28;1216;-67
2022/08/07 00:41:31;;;;;;;1.52;0.45;;;;;;;18.18;39.55;100114.03;342240;28;1043;-67
2022/08/07 00:41:50;;;;;;;1.92;0.50;;;;;;;18.19;39.77;100117.50;342393;28;1019;-67
2022/08/07 00:42:13;;;;;;;0.55;0.50;;;;;;;18.19;39.78;100121.00;342365;28;1551;-67
2022/08/07 00:42:25;;;;;;;1.00;0.50;;;;;;;18.19;40.20;100113.09;341728;28;2289;-67
2022/08/07 00:42:40;;;;;;;2.05;0.50;;;;;;;18.18;39.63;100116.66;343087;28;1745;-67
2022/08/07 00:42:52;;;;;;;1.88;0.50;;;;;;;18.20;40.08;100114.78;343430;28;1275;-66
2022/08/07 00:43:04;;;;;;;1.95;0.50;;;;;;;18.17;40.11;100114.97;343557;28;1360;-67
2022/08/07 00:43:25;;;;;;;0.88;0.60;;;;;;;18.17;38.87;100117.59;342765;28;1959;-67
2022/08/07 00:43:57;;;;;;;1.50;0.50;;;;;;;18.20;39.28;100117.41;342687;28;1636;-67
2022/08/07 00:44:13;;;;;;;1.20;0.60;;;;;;;18.24;39.14;100113.66;342321;28;1906;-67
2022/08/07 00:44:26;;;;;;;1.10;0.50;;;;;;;18.26;39.46;100111.78;342462;28;1099;-67
2022/08/07 00:44:38;;;;;;;0.60;0.40;;;;;;;18.27;38.93;100112.63;342960;28;1651;-68
2022/08/07 00:44:52;;;;;;;0.50;0.40;;;;;;;18.28;39.44;100115.19;344006;28;1260;-67
2022/08/07 00:45:05;;;;;;;0.98;0.55;;;;;;;18.24;39.75;100113.66;341934;28;1633;-67
2022/08/07 00:45:20;;;;;;;0.98;0.60;;;;;;;18.26;40.36;100122.31;342458;28;1103;-67
2022/08/07 00:45:33;;;;;;;0.80;0.60;;;;;;;18.26;39.66;100111.78;343132;28;1327;-67
2022/08/07 00:45:47;;;;;;;0.60;0.50;;;;;;;18.29;39.38;100116.91;343772;28;1245;-67
2022/08/07 00:46:01;;;;;;;0.82;0.50;;;;;;;18.28;39.37;100112.56;344137;28;1832;-67
2022/08/07 00:46:13;;;;;;;1.13;0.50;;;;;;;18.29;39.48;100113.41;343622;28;1123;-67
2022/08/07 00:46:25;;;;;;;1.10;0.45;;;;;;;18.27;39.31;100110.88;343490;28;1104;-67
2022/08/07 00:46:37;;;;;;;0.50;0.45;;;;;;;18.28;39.69;100109.94;343398;28;1220;-67
2022/08/07 00:46:51;;;;;;;0.63;0.50;;;;;;;18.28;39.82;100115.19;343623;28;1672;-67
2022/08/07 00:47:05;;;;;;;0.60;0.45;;;;;;;18.25;38.81;100110.13;343370;28;1417;-67
2022/08/07 00:47:37;;;;;;;0.73;0.50;;;;;;;18.26;38.28;100110.97;343506;28;1357;-67
2022/08/07 00:48:10;;;;;;;3.17;0.52;;;;;;;18.27;38.66;100112.63;343001;28;2218;-67
2022/08/07 00:48:22;;;;;;;1.45;0.40;;;;;;;18.29;38.71;100105.50;343525;28;1155;-67
2022/08/07 00:48:41;;;;;;;1.60;0.40;;;;;;;18.29;39.09;100110.75;343141;28;1288;-67
2022/08/07 00:48:54;;;;;;;2.08;0.50;;;;;;;18.26;39.57;100117.06;342643;28;1665;-67
2022/08/07 00:49:06;;;;;;;1.92;0.43;;;;;;;18.27;39.15;100102.97;342823;28;1411;-67
2022/08/07 00:49:19;;;;;;;1.52;0.50;;;;;;;18.29;38.88;100105.50;343181;28;1013;-67
2022/08/07 00:49:51;;;;;;;0.60;0.60;;;;;;;18.30;38.96;100108.06;343908;28;1347;-67
2022/08/07 00:50:23;;;;;;;1.55;0.57;;;;;;;18.33;38.96;100110.53;343707;28;1394;-67
2022/08/07 00:50:55;;;;;;;0.60;0.50;;;;;;;18.33;38.91;100107.91;343359;28;1620;-67
2022/08/07 00:51:08;;;;;;;0.50;0.50;;;;;;;18.34;38.39;100103.47;343867;28;1088;-66
2022/08/07 00:51:20;;;;;;;0.40;0.40;;;;;;;18.34;38.86;100099.03;343555;28;1546;-67
2022/08/07 00:51:32;;;;;;;0.40;0.40;;;;;;;18.34;38.99;100104.31;342065;28;1115;-67
2022/08/07 00:52:05;;;;;;;1.42;0.47;;;;;;;18.33;39.12;100102.63;342073;28;1554;-67
2022/08/07 00:52:20;;;;;;;0.77;0.60;;;;;;;18.34;39.07;100104.31;342073;28;1218;-67
2022/08/07 00:52:32;;;;;;;2.05;0.50;;;;;;;18.34;39.04;100099.03;341785;28;2016;-67
2022/08/07 00:52:47;;;;;;;3.27;0.50;;;;;;;18.35;39.26;100105.16;343054;28;1336;-67
2022/08/07 00:52:59;;;;;;;3.72;0.85;;;;;;;18.36;38.90;100107.69;343816;28;1544;-67
2022/08/07 00:53:11;;;;;;;0.98;0.80;;;;;;;18.36;38.51;100105.06;343442;28;1039;-67
2022/08/07 00:53:24;;;;;;;0.93;0.63;;;;;;;18.37;38.93;100105.91;343391;28;1138;-67
2022/08/07 00:53:36;;;;;;;0.90;0.43;;;;;;;18.38;38.96;100101.50;342935;28;1663;-67
2022/08/07 00:54:00;;;;;;;0.65;0.45;;;;;;;18.31;38.34;100098.38;342622;28;1559;-67
2022/08/07 00:54:14;;;;;;;0.57;0.40;;;;;;;18.32;38.90;100105.34;342812;28;1812;-67
2022/08/07 00:54:31;;;;;;;0.60;0.47;;;;;;;18.30;39.10;100100.16;342194;28;1691;-67
2022/08/07 00:54:43;;;;;;;0.50;0.50;;;;;;;18.30;39.05;100102.78;342141;28;2012;-67
2022/08/07 00:54:55;;;;;;;0.47;0.47;;;;;;;18.32;38.80;100100.91;342682;28;1772;-67
2022/08/07 00:55:08;;;;;;;0.40;0.40;;;;;;;18.33;39.07;100107.91;342430;28;2267;-67
2022/08/07 00:55:22;;;;;;;0.40;0.40;;;;;;;18.32;39.18;100103.56;343933;28;1250;-67
2022/08/07 00:55:54;;;;;;;0.93;0.50;;;;;;;18.30;39.32;100105.44;342779;28;1715;-67
2022/08/07 00:56:14;;;;;;;1.70;0.60;;;;;;;18.33;39.18;100102.63;343090;28;1973;-67
2022/08/07 00:56:28;;;;;;;1.33;0.50;;;;;;;18.32;38.82;100100.91;342163;28;1144;-67
2022/08/07 00:56:44;;;;;;;0.40;0.40;;;;;;;18.34;38.52;100101.69;342327;28;1728;-68
2022/08/07 00:57:01;;;;;;;0.47;0.40;;;;;;;18.38;38.81;100104.16;342910;28;1729;-67
2022/08/07 00:57:15;;;;;;;1.00;0.40;;;;;;;18.38;38.84;100101.50;343768;28;1276;-67
2022/08/07 00:57:28;;;;;;;0.98;0.55;;;;;;;18.38;38.76;100104.16;342487;28;1251;-67
2022/08/07 00:57:45;;;;;;;1.10;0.70;;;;;;;18.32;38.42;100094.81;342520;28;1030;-67
2022/08/07 00:58:07;;;;;;;1.45;0.60;;;;;;;18.31;38.59;100101.88;343591;28;1477;-67
2022/08/07 00:58:20;;;;;;;2.03;0.70;;;;;;;18.31;39.13;100104.50;343013;28;1212;-70
2022/08/07 00:58:32;;;;;;;1.75;0.63;;;;;;;18.33;38.58;100107.03;342250;28;1942;-68
2022/08/07 00:58:45;;;;;;;1.30;0.57;;;;;;;18.33;38.72;100107.91;343666;28;1263;-67
2022/08/07 00:58:59;;;;;;;0.60;0.50;;;;;;;18.28;38.71;100099.41;343651;28;1642;-67
2022/08/07 00:59:11;;;;;;;1.20;0.50;;;;;;;18.30;39.25;100101.94;344025;28;1742;-68
2022/08/07 00:59:26;;;;;;;1.20;0.50;;;;;;;18.31;39.25;100103.63;343629;28;1208;-68
2022/08/07 00:59:46;;;;;;;0.77;0.43;;;;;;;18.30;39.51;100102.78;343393;28;2216;-68
2022/08/07 01:00:00;;;;;;;1.10;0.50;;;;;;;18.34;39.02;100104.31;343445;28;1667;-69
2022/08/07 01:00:14;;;;;;;1.63;0.60;;;;;;;18.35;38.96;100106.03;344518;28;1815;-68
2022/08/07 01:00:26;;;;;;;1.00;0.50;;;;;;;18.33;39.16;100100.00;344538;28;1317;-68
2022/08/07 01:00:38;;;;;;;0.50;0.40;;;;;;;18.34;39.23;100104.31;342908;28;1724;-67
2022/08/07 01:01:05;;;;;;;0.63;0.40;;;;;;;18.33;39.83;100107.91;343395;28;1344;-68
2022/08/07 01:01:19;;;;;;;0.70;0.43;;;;;;;18.34;39.61;100099.03;343613;28;1091;-69
2022/08/07 01:01:32;;;;;;;1.30;0.50;;;;;;;18.34;39.84;100104.31;341850;28;1140;-68
2022/08/07 01:01:55;;;;;;;2.35;0.50;;;;;;;18.33;39.32;100099.13;342228;28;1892;-69
2022/08/07 01:02:09;;;;;;;2.75;0.50;;;;;;;18.35;39.37;100100.75;342339;28;1522;-67
2022/08/07 01:02:41;;;;;;;1.33;0.82;;;;;;;18.33;38.96;100101.75;343041;28;1809;-67
2022/08/07 01:02:54;;;;;;;1.35;0.57;;;;;;;18.35;39.23;100095.50;344705;28;1521;-67
2022/08/07 01:03:06;;;;;;;1.08;0.50;;;;;;;18.38;38.84;100098.88;343563;28;1055;-68
2022/08/07 01:03:24;;;;;;;1.30;0.60;;;;;;;18.39;38.97;100105.81;343054;28;1125;-67
2022/08/07 01:03:56;;;;;;;1.05;0.50;;;;;;;18.35;38.86;100106.03;341847;28;1800;-67
2022/08/07 01:04:11;;;;;;;0.50;0.40;;;;;;;18.31;39.34;100104.50;342645;28;1613;-66
2022/08/07 01:04:37;;;;;;;1.08;0.50;;;;;;;18.32;38.89;100108.81;342024;28;1040;-68
2022/08/07 01:04:54;;;;;;;0.40;0.40;;;;;;;18.34;38.75;100103.47;342002;28;1795;-67
2022/08/07 01:05:11;;;;;;;0.93;0.40;;;;;;;18.35;38.92;100106.03;342586;28;1655;-66
2022/08/07 01:05:31;;;;;;;1.15;0.40;;;;;;;18.35;39.52;100111.28;343438;28;1307;-67
2022/08/07 01:05:48;;;;;;;0.85;0.40;;;;;;;18.35;39.26;100105.16;342761;28;1051;-66
2022/08/07 01:06:04;;;;;;;1.20;0.50;;;;;;;18.35;39.44;100102.53;342766;28;1335;-67
2022/08/07 01:06:17;;;;;;;1.20;0.50;;;;;;;18.34;40.13;100106.94;342536;28;1311;-68
2022/08/07 01:06:33;;;;;;;0.77;0.50;;;;;;;18.31;40.04;100101.88;342331;28;1041;-68
2022/08/07 01:06:46;;;;;;;1.00;0.50;;;;;;;18.32;39.64;100105.34;342131;28;1226;-67
2022/08/07 01:07:00;;;;;;;2.22;0.50;;;;;;;18.33;39.36;100101.75;342489;28;1674;-67
2022/08/07 01:07:14;;;;;;;2.00;0.60;;;;;;;18.33;39.99;100097.38;343406;28;1821;-67
2022/08/07 01:07:27;;;;;;;0.80;0.60;;;;;;;18.35;39.30;100103.38;342431;28;1916;-67
2022/08/07 01:07:40;;;;;;;0.90;0.60;;;;;;;18.34;39.84;100106.94;343506;28;1292;-67
2022/08/07 01:07:53;;;;;;;0.93;0.60;;;;;;;18.33;39.40;100102.63;343011;28;2067;-67
2022/08/07 01:08:06;;;;;;;2.40;0.57;;;;;;;18.34;39.60;100104.31;342157;28;1635;-67
2022/08/07 01:08:20;;;;;;;2.60;0.57;;;;;;;18.34;39.42;100103.47;340966;28;1044;-67
2022/08/07 01:08:40;;;;;;;1.20;0.60;;;;;;;18.34;39.50;100103.47;342482;28;1843;-68
2022/08/07 01:09:04;;;;;;;0.45;0.45;;;;;;;18.29;39.32;100105.50;342408;28;1422;-67
2022/08/07 01:09:18;;;;;;;0.70;0.47;;;;;;;18.28;39.41;100099.41;342515;28;1107;-66
2022/08/07 01:09:50;;;;;;;1.38;0.50;;;;;;;18.28;39.41;100104.66;342498;28;2162;-67
2022/08/07 01:10:18;;;;;;;1.15;0.50;;;;;;;18.29;39.22;100106.38;342434;28;1070;-67
2022/08/07 01:10:32;;;;;;;1.33;0.40;;;;;;;18.27;39.91;100102.13;342529;28;1003;-67
2022/08/07 01:10:45;;;;;;;1.70;0.40;;;;;;;18.28;39.62;100103.81;343913;28;1264;-67
2022/08/07 01:11:07;;;;;;;0.98;0.50;;;;;;;18.26;39.29;100101.28;342482;28;1798;-67
2022/08/07 01:11:39;;;;;;;1.90;0.60;;;;;;;18.23;39.34;100106.72;343067;28;1622;-67
2022/08/07 01:12:13;;;;;;;0.70;0.50;;;;;;;18.22;39.06;100105.00;342387;28;1440;-67
2022/08/07 01:12:42;;;;;;;0.50;0.50;;;;;;;18.21;39.19;100108.59;342183;28;1117;-67
2022/08/07 01:13:04;;;;;;;1.00;0.50;;;;;;;18.17;39.40;100104.44;344568;28;1329;-67
2022/08/07 01:13:17;;;;;;;0.90;0.50;;;;;;;18.16;39.44;100105.38;344549;28;1288;-67
2022/08/07 01:13:29;;;;;;;1.50;0.50;;;;;;;18.17;39.91;100107.09;343557;28;1299;-68
2022/08/07 01:13:46;;;;;;;2.70;0.50;;;;;;;18.17;39.65;100102.66;343165;28;1661;-68
2022/08/07 01:14:07;;;;;;;1.60;0.50;;;;;;;18.19;39.52;100102.56;344571;28;1535;-68
2022/08/07 01:14:21;;;;;;;1.23;0.57;;;;;;;18.22;39.68;100104.19;343515;28;1712;-68
2022/08/07 01:14:40;;;;;;;2.60;0.50;;;;;;;18.21;40.07;100103.34;344374;28;1556;-67
2022/08/07 01:14:57;;;;;;;0.65;0.40;;;;;;;18.21;39.96;100105.97;342356;28;1646;-67
2022/08/07 01:15:14;;;;;;;0.90;0.50;;;;;;;18.22;39.77;100102.38;342454;28;1351;-67
2022/08/07 01:15:32;;;;;;;1.30;0.60;;;;;;;18.24;39.21;100107.56;342646;28;1059;-68
2022/08/07 01:16:06;;;;;;;0.70;0.40;;;;;;;18.16;40.63;100103.56;343046;28;1632;-67
2022/08/07 01:16:18;;;;;;;1.98;0.55;;;;;;;18.19;39.57;100099.94;342958;28;1152;-67
2022/08/07 01:16:42;;;;;;;2.22;0.57;;;;;;;18.18;39.52;100100.88;342772;28;1170;-67
2022/08/07 01:16:58;;;;;;;1.17;0.43;;;;;;;18.19;39.67;100097.31;342172;28;1724;-67
2022/08/07 01:17:11;;;;;;;1.30;0.80;;;;;;;18.20;39.73;100103.41;342976;28;1621;-67
2022/08/07 01:17:23;;;;;;;1.60;0.90;;;;;;;18.21;39.33;100107.72;342295;28;1123;-67
2022/08/07 01:17:35;;;;;;;1.10;0.70;;;;;;;18.22;39.30;100104.19;341422;28;1639;-67
2022/08/07 01:17:51;;;;;;;2.00;0.60;;;;;;;18.21;39.94;100103.34;342814;28;1757;-67
2022/08/07 01:18:04;;;;;;;1.63;0.50;;;;;;;18.20;39.84;100104.25;342432;28;1375;-67
2022/08/07 01:18:20;;;;;;;0.77;0.50;;;;;;;18.19;39.74;100102.56;342736;28;1417;-67
2022/08/07 01:18:35;;;;;;;0.90;0.50;;;;;;;18.17;39.39;100100.03;343641;28;1003;-68
2022/08/07 01:18:48;;;;;;;1.92;0.50;;;;;;;18.18;39.24;100103.50;343777;28;1046;-68
2022/08/07 01:19:03;;;;;;;2.83;0.60;;;;;;;18.19;39.20;100106.97;342758;28;2018;-68
2022/08/07 01:19:28;;;;;;;1.48;0.47;;;;;;;18.18;39.06;100103.50;343451;28;1082;-68
2022/08/07 01:19:43;;;;;;;0.70;0.50;;;;;;;18.19;39.51;100110.47;343335;28;1046;-68
2022/08/07 01:20:11;;;;;;;1.38;0.60;;;;;;;18.16;39.66;100106.22;341991;28;1360;-67
2022/08/07 01:20:34;;;;;;;2.60;0.50;;;;;;;18.16;39.35;100105.38;341170;29;868;-67
2022/08/07 01:21:23;;;;;;;2.47;0.60;;;;;;;18.13;39.71;100106.41;341910;28;1710;-67
2022/08/07 01:21:38;;;;;;;2.38;0.50;;;;;;;18.07;39.24;100111.13;343868;28;1230;-67
2022/08/07 01:21:53;;;;;;;2.63;0.50;;;;;;;18.11;39.95;100107.41;344491;28;1000;-68